Time;durP1;ratioP1;P1;durP2;ratioP2;P2;SDS_P1;SDS_P2;PMS_P1;PMS_P2;Temp;Humidity;BMP_temperature;BMP_pressure;BME280_temperature;BME280_humidity;BME280_pressure;Samples;Min_cycle;Max_cycle;Signal;HPM_P1;HPM_P2
2022/01/03 00:00:13;;;;;;;2.83;1.37;;;10.00;99.90;;;10.38;100.00;98095.09;5040516;28;20453;-80
2022/01/03 00:02:45;;;;;;;2.20;1.00;;;9.90;99.90;;;10.32;100.00;98105.47;5049808;28;20469;-80
2022/01/03 00:05:15;;;;;;;2.70;1.17;;;9.80;99.90;;;10.34;100.00;98114.78;5042101;28;20805;-80
2022/01/03 00:07:46;;;;;;;1.00;0.80;;;9.80;99.90;;;10.31;100.00;98094.19;5042337;28;20984;-79
2022/01/03 00:10:18;;;;;;;4.80;1.20;;;9.80;99.90;;;10.29;100.00;98072.69;5047744;28;20518;-80
2022/01/03 00:12:49;;;;;;;3.07;1.00;;;9.80;99.90;;;10.30;100.00;98065.66;5049511;28;20571;-80
2022/01/03 00:15:20;;;;;;;2.30;1.10;;;9.80;99.90;;;10.30;100.00;98081.34;5044391;28;20484;-80
2022/01/03 00:17:53;;;;;;;6.70;1.03;;;9.80;99.90;;;10.27;100.00;98087.75;5047685;28;20818;-80
2022/01/03 00:20:25;;;;;;;3.07;1.23;;;9.80;99.90;;;10.29;100.00;98093.59;5032058;28;20488;-80
2022/01/03 00:23:01;;;;;;;2.80;1.00;;;9.80;99.90;;;10.24;100.00;98101.16;5051150;28;20968;-80
2022/01/03 00:25:36;;;;;;;1.97;0.97;;;9.80;99.90;;;10.24;100.00;98085.47;5046366;28;20491;-80
2022/01/03 00:28:16;;;;;;;3.73;0.93;;;9.70;99.90;;;10.24;100.00;98088.09;5046909;28;20461;-80
2022/01/03 00:30:46;;;;;;;5.03;1.40;;;9.70;99.90;;;10.23;100.00;98091.72;5042683;28;20985;-80
2022/01/03 00:33:19;;;;;;;3.77;1.20;;;9.70;99.90;;;10.25;100.00;98079.25;5046118;28;20469;-80
2022/01/03 00:35:58;;;;;;;3.00;1.33;;;9.70;99.90;;;10.23;100.00;98094.34;5048653;28;21088;-80
2022/01/03 00:38:31;;;;;;;2.00;1.00;;;9.70;99.90;;;10.22;100.00;98086.66;5046658;28;20460;-80
2022/01/03 00:41:03;;;;;;;2.13;1.10;;;9.60;99.90;;;10.13;100.00;98083.31;5043200;28;20472;-80
2022/01/03 00:43:33;;;;;;;5.10;1.50;;;9.60;99.90;;;10.07;100.00;98086.66;5048263;28;20460;-79
2022/01/03 00:46:04;;;;;;;7.13;1.10;;;9.50;99.90;;;10.05;100.00;98091.25;5043479;28;20461;-80
2022/01/03 00:48:36;;;;;;;6.00;1.00;;;9.60;99.90;;;9.99;100.00;98113.72;5050367;28;20550;-80
2022/01/03 00:51:06;;;;;;;2.50;1.20;;;9.40;99.90;;;10.00;100.00;98122.31;5048309;28;20834;-80
2022/01/03 00:53:36;;;;;;;5.73;1.60;;;9.50;99.90;;;10.00;100.00;98127.56;5050164;28;20453;-80
2022/01/03 00:56:14;;;;;;;6.23;1.63;;;9.50;99.90;;;9.92;100.00;98118.03;5051480;28;20921;-80
2022/01/03 00:58:55;;;;;;;5.73;1.30;;;9.40;99.90;;;9.92;100.00;98112.00;5054883;28;20445;-80
2022/01/03 01:01:27;;;;;;;4.37;1.17;;;9.40;99.90;;;9.90;100.00;98127.84;5045405;28;20651;-80
2022/01/03 01:04:03;;;;;;;4.57;1.33;;;9.40;99.90;;;9.86;100.00;98130.97;5048674;28;20461;-80
2022/01/03 01:06:37;;;;;;;5.03;1.53;;;9.30;99.90;;;9.93;100.00;98129.25;5046501;28;20887;-80
2022/01/03 01:09:09;;;;;;;6.07;1.63;;;9.40;99.90;;;9.93;100.00;98135.31;5043206;28;20468;-80
2022/01/03 01:11:44;;;;;;;5.20;1.40;;;9.40;99.90;;;9.94;100.00;98133.50;5043460;28;20457;-80
2022/01/03 01:14:15;;;;;;;7.57;1.73;;;9.40;99.90;;;9.95;100.00;98122.06;5048951;28;20464;-80
2022/01/03 01:16:44;;;;;;;16.23;1.90;;;9.40;99.90;;;9.91;100.00;98124.25;5046447;28;20985;-80
2022/01/03 01:19:17;;;;;;;10.70;1.60;;;9.40;99.90;;;9.92;100.00;98130.28;5044665;28;20886;-79
2022/01/03 01:21:49;;;;;;;5.40;1.50;;;9.40;99.90;;;9.89;100.00;98141.88;5046053;28;20571;-80
2022/01/03 01:24:23;;;;;;;4.40;1.70;;;9.40;99.90;;;9.90;100.00;98145.31;5046527;28;20524;-80
2022/01/03 01:29:44;;;;;;;5.53;1.50;;;9.30;99.90;;;9.82;100.00;98135.75;5048450;28;20481;-80
2022/01/03 01:32:17;;;;;;;4.27;1.63;;;9.30;99.90;;;9.83;100.00;98137.38;5043013;28;20461;-80
2022/01/03 01:34:53;;;;;;;5.20;1.73;;;9.30;99.90;;;9.86;100.00;98130.97;5047490;28;20467;-80
2022/01/03 01:37:24;;;;;;;3.20;1.07;;;9.30;99.90;;;9.85;100.00;98134.59;5043576;28;20853;-79
2022/01/03 01:39:58;;;;;;;9.10;1.30;;;9.30;99.90;;;9.84;100.00;98130.34;5048357;28;20489;-80
2022/01/03 01:42:32;;;;;;;5.23;1.50;;;9.30;99.90;;;9.83;100.00;98136.56;5038851;28;20494;-80
2022/01/03 01:45:08;;;;;;;3.33;1.37;;;9.20;99.90;;;9.85;100.00;98130.19;5045457;28;20457;-79
2022/01/03 01:47:41;;;;;;;14.73;2.43;;;9.30;99.90;;;9.87;100.00;98127.38;5045627;28;20461;-79
2022/01/03 01:50:12;;;;;;;7.47;1.70;;;9.30;99.90;;;9.87;100.00;98124.78;5046408;28;20449;-80
2022/01/03 01:52:44;;;;;;;6.10;1.57;;;9.30;99.90;;;9.92;100.00;98135.50;5049737;28;20469;-80
2022/01/03 01:55:16;;;;;;;5.00;1.63;;;9.40;99.90;;;9.90;100.00;98129.63;5046681;28;20469;-80
2022/01/03 01:58:04;;;;;;;7.93;1.87;;;9.40;99.90;;;9.89;100.00;98143.69;5044942;28;21027;-79
2022/01/03 02:00:35;;;;;;;4.40;1.50;;;9.30;99.90;;;9.91;100.00;98128.66;5043080;28;20453;-80
2022/01/03 02:03:16;;;;;;;4.13;1.30;;;9.40;99.90;;;9.91;100.00;98134.69;5047248;28;20541;-79
2022/01/03 02:06:19;;;;;;;10.00;1.67;;;9.40;99.90;;;9.92;100.00;98132.91;5048575;28;20452;-80
2022/01/03 02:09:04;;;;;;;4.40;1.27;;;9.40;99.90;;;9.94;100.00;98125.66;5045118;28;20457;-80
2022/01/03 02:11:54;;;;;;;8.83;1.60;;;9.40;99.90;;;9.94;100.00;98144.78;5045497;28;20465;-80
2022/01/03 02:14:27;;;;;;;8.03;1.23;;;9.40;99.90;;;9.95;100.00;98140.38;5045070;28;20457;-80
2022/01/03 02:16:57;;;;;;;4.63;1.47;;;9.40;99.90;;;9.94;100.00;98149.19;5047465;28;20492;-80
2022/01/03 02:19:27;;;;;;;8.97;1.47;;;9.30;99.90;;;9.93;100.00;98150.97;5048468;28;20461;-79
2022/01/03 02:21:58;;;;;;;3.07;1.30;;;9.40;99.90;;;9.89;100.00;98147.09;5048867;28;21068;-80
2022/01/03 02:24:29;;;;;;;3.83;2.13;;;9.30;99.90;;;9.78;100.00;98150.19;5044316;28;20867;-80
2022/01/03 02:27:02;;;;;;;5.13;1.50;;;9.20;99.90;;;9.76;100.00;98148.72;5044489;28;20493;-80
2022/01/03 02:29:32;;;;;;;17.93;6.10;;;9.20;99.90;;;9.71;100.00;98146.66;5040256;28;21074;-79
2022/01/03 02:32:01;;;;;;;4.73;1.20;;;9.20;99.90;;;9.74;100.00;98141.06;5043584;28;20524;-80
2022/01/03 02:34:31;;;;;;;5.40;1.47;;;9.30;99.90;;;9.73;100.00;98131.63;5041357;28;20465;-80
2022/01/03 02:37:04;;;;;;;4.77;1.37;;;9.20;99.90;;;9.77;100.00;98142.50;5041559;28;20531;-80
2022/01/03 02:39:34;;;;;;;3.33;1.20;;;9.20;99.90;;;9.80;100.00;98136.94;5044636;28;20450;-80
2022/01/03 02:42:05;;;;;;;5.47;1.10;;;9.30;99.90;;;9.75;100.00;98141.91;5043794;28;20457;-80
2022/01/03 02:44:34;;;;;;;7.90;1.20;;;9.20;99.90;;;9.80;100.00;98137.75;5048399;28;20511;-80
2022/01/03 02:47:05;;;;;;;5.13;1.80;;;9.30;99.90;;;9.81;100.00;98130.72;5044968;28;20464;-79
2022/01/03 02:49:35;;;;;;;2.50;1.30;;;9.20;99.90;;;9.81;100.00;98146.38;5042665;28;20457;-80
2022/01/03 02:52:07;;;;;;;6.90;1.73;;;9.20;99.90;;;9.80;100.00;98149.97;5040573;28;20453;-80
2022/01/03 02:54:36;;;;;;;11.03;1.97;;;9.20;99.90;;;9.85;100.00;98130.19;5050694;28;20492;-80
2022/01/03 02:57:06;;;;;;;8.87;1.90;;;9.30;99.90;;;9.83;100.00;98141.78;5046815;28;21069;-79
2022/01/03 02:59:36;;;;;;;8.90;2.00;;;9.20;99.90;;;9.85;100.00;98140.63;5046625;28;20471;-79
2022/01/03 03:02:07;;;;;;;11.87;2.07;;;9.30;99.90;;;9.90;100.00;98145.31;5049277;28;20541;-79
2022/01/03 03:04:56;;;;;;;9.87;1.80;;;9.30;99.90;;;9.91;100.00;98166.03;5047573;28;20950;-79
2022/01/03 03:07:29;;;;;;;14.07;1.67;;;9.30;99.90;;;9.94;100.00;98154.41;5040076;28;20462;-80
2022/01/03 03:10:00;;;;;;;11.47;2.10;;;9.50;99.90;;;9.95;100.00;98137.75;5042637;28;20472;-79
2022/01/03 03:12:29;;;;;;;6.33;2.30;;;9.40;99.90;;;9.98;100.00;98146.03;5036243;28;20456;-80
2022/01/03 03:15:00;;;;;;;7.67;2.20;;;9.40;99.90;;;9.97;100.00;98143.59;5044888;28;20453;-80
2022/01/03 03:17:30;;;;;;;6.77;1.90;;;9.40;99.90;;;10.00;100.00;98145.84;5048894;28;20499;-80
2022/01/03 03:20:11;;;;;;;14.20;2.23;;;9.50;99.90;;;9.95;100.00;98145.59;5041359;28;20848;-79
2022/01/03 03:22:43;;;;;;;13.23;2.13;;;9.40;99.90;;;9.97;100.00;98143.59;5043815;28;20476;-79
2022/01/03 03:25:17;;;;;;;7.50;1.70;;;9.50;99.90;;;9.96;100.00;98144.59;5048085;28;20461;-80
2022/01/03 03:27:49;;;;;;;3.90;1.47;;;9.40;99.90;;;9.93;100.00;98145.75;5053268;28;20523;-79
2022/01/03 03:30:23;;;;;;;8.10;1.70;;;9.40;99.90;;;9.93;100.00;98132.69;5044354;28;20488;-79
2022/01/03 03:32:57;;;;;;;6.27;1.47;;;9.40;99.90;;;9.89;100.00;98135.88;5044386;28;20964;-80
2022/01/03 03:35:27;;;;;;;4.43;1.73;;;9.40;99.90;;;9.87;100.00;98135.22;5050537;28;20464;-80
2022/01/03 03:37:59;;;;;;;9.97;1.63;;;9.40;99.90;;;9.88;100.00;98131.63;5047883;28;20484;-79
2022/01/03 03:40:28;;;;;;;11.23;1.73;;;9.40;99.90;;;9.84;100.00;98136.41;5048486;28;20510;-80
2022/01/03 03:42:58;;;;;;;7.93;1.83;;;9.30;99.90;;;9.86;100.00;98139.63;5049326;28;20461;-80
2022/01/03 03:45:27;;;;;;;5.97;1.80;;;9.30;99.90;;;9.86;100.00;98136.19;5046042;28;20874;-80
2022/01/03 03:47:58;;;;;;;10.23;1.57;;;9.30;99.90;;;9.86;100.00;98138.81;5048257;28;20481;-79
2022/01/03 03:50:27;;;;;;;8.40;1.40;;;9.30;99.90;;;9.86;100.00;98141.41;5044509;28;20840;-80
2022/01/03 03:52:58;;;;;;;2.93;1.40;;;9.40;99.90;;;9.86;100.00;98136.19;5048680;28;20468;-79
2022/01/03 03:55:28;;;;;;;6.80;1.60;;;9.40;99.90;;;9.86;100.00;98134.41;5045526;28;20466;-79
2022/01/03 03:57:57;;;;;;;8.43;1.73;;;9.40;99.90;;;9.84;100.00;98133.78;5045018;28;20904;-79
2022/01/03 04:00:28;;;;;;;4.57;1.40;;;9.40;99.90;;;9.89;100.00;98141.09;5048902;28;20797;-79
2022/01/03 04:02:58;;;;;;;5.73;1.37;;;9.30;99.90;;;9.87;100.00;98135.22;5048144;28;20465;-79
2022/01/03 04:05:30;;;;;;;4.30;1.40;;;9.40;99.90;;;9.89;100.00;98134.03;5055503;28;20926;-79
2022/01/03 04:08:02;;;;;;;5.13;1.53;;;9.40;99.90;;;9.90;100.00;98145.31;5045191;28;20465;-79
2022/01/03 04:10:32;;;;;;;10.67;1.80;;;9.40;99.90;;;9.91;100.00;98141.72;5050677;28;20473;-79
2022/01/03 04:13:01;;;;;;;6.23;1.87;;;9.40;99.90;;;9.91;100.00;98144.31;5046109;28;20468;-79
2022/01/03 04:15:32;;;;;;;6.93;1.77;;;9.30;99.90;;;9.86;100.00;98147.47;5050016;28;20458;-79
2022/01/03 04:18:01;;;;;;;10.43;2.07;;;9.40;99.90;;;9.86;100.00;98144.03;5046662;28;20547;-79
2022/01/03 04:20:32;;;;;;;10.90;2.00;;;9.40;99.90;;;9.83;100.00;98144.41;5044552;28;20482;-83
2022/01/03 04:23:04;;;;;;;7.20;1.70;;;9.30;99.90;;;9.80;100.00;98142.16;5048759;28;20487;-79
2022/01/03 04:25:34;;;;;;;8.77;1.63;;;9.30;99.90;;;9.77;100.00;98137.28;5048402;28;20465;-80
2022/01/03 04:28:04;;;;;;;5.90;1.90;;;9.30;99.90;;;9.78;100.00;98144.97;5052802;28;20458;-79
2022/01/03 04:30:36;;;;;;;12.60;2.20;;;9.30;99.90;;;9.82;100.00;98140.19;5046698;28;20997;-79
2022/01/03 04:33:07;;;;;;;3.57;1.13;;;9.30;99.90;;;9.85;100.00;98132.00;5048060;28;20556;-82
2022/01/03 04:35:36;;;;;;;8.03;2.40;;;9.30;99.90;;;9.83;100.00;98136.56;5049896;28;20538;-79
2022/01/03 04:38:07;;;;;;;10.57;5.23;;;9.30;99.90;;;9.83;100.00;98126.13;5049931;28;20489;-80
2022/01/03 04:40:37;;;;;;;8.07;2.10;;;9.30;99.90;;;9.80;100.00;98126.47;5048754;28;20544;-79
2022/01/03 04:43:08;;;;;;;4.60;1.57;;;9.20;99.90;;;9.83;100.00;98131.34;5043492;28;20456;-79
2022/01/03 04:45:37;;;;;;;7.13;2.00;;;9.30;99.90;;;9.77;100.00;98134.69;5041705;28;20461;-79
2022/01/03 04:48:08;;;;;;;7.03;1.80;;;9.30;99.90;;;9.78;100.00;98133.69;5052821;28;20457;-79
2022/01/03 04:50:38;;;;;;;4.83;1.53;;;9.30;99.90;;;9.78;100.00;98138.91;5053058;28;20437;-79
2022/01/03 04:53:09;;;;;;;5.03;1.73;;;9.30;99.90;;;9.80;100.00;98136.94;5049363;28;20718;-79
2022/01/03 04:55:45;;;;;;;10.83;1.60;;;9.20;99.90;;;9.77;100.00;98135.50;5049985;28;20535;-79
2022/01/03 04:58:15;;;;;;;6.90;1.50;;;9.30;99.90;;;9.79;100.00;98130.09;5049643;28;21005;-79
2022/01/03 05:00:47;;;;;;;5.60;1.60;;;9.20;99.90;;;9.79;100.00;98130.09;5045428;28;20796;-79
2022/01/03 05:03:18;;;;;;;2.90;1.23;;;9.20;99.90;;;9.79;100.00;98136.13;5047382;28;20488;-79
2022/01/03 05:05:48;;;;;;;13.93;2.50;;;9.20;99.90;;;9.77;100.00;98129.47;5048768;28;20548;-81
2022/01/03 05:08:19;;;;;;;11.57;2.60;;;9.10;99.90;;;9.81;100.00;98139.38;5046030;28;20466;-79
2022/01/03 05:10:53;;;;;;;6.07;1.67;;;9.10;99.90;;;9.79;100.00;98135.31;5043634;28;20452;-79
2022/01/03 05:13:23;;;;;;;11.80;1.80;;;9.10;99.90;;;9.81;100.00;98133.34;5049080;28;20793;-79
2022/01/03 05:15:53;;;;;;;4.87;1.70;;;9.00;99.90;;;9.78;100.00;98149.38;5048917;28;20519;-80
2022/01/03 05:18:24;;;;;;;9.37;2.20;;;9.10;99.90;;;9.79;100.00;98140.56;5046164;28;20492;-79
2022/01/03 05:20:53;;;;;;;7.47;1.60;;;9.10;99.90;;;9.77;100.00;98143.31;5048978;28;20493;-79
2022/01/03 05:23:25;;;;;;;4.93;1.43;;;9.20;99.90;;;9.78;100.00;98142.34;5047512;28;20861;-79
2022/01/03 05:25:55;;;;;;;9.17;2.17;;;9.10;99.90;;;9.79;100.00;98140.56;5047498;28;21034;-83
2022/01/03 05:28:24;;;;;;;54.67;23.07;;;9.20;99.90;;;9.79;100.00;98135.31;5048507;28;20891;-79
2022/01/03 05:30:53;;;;;;;9.17;2.00;;;9.30;99.90;;;9.79;100.00;98136.13;5033806;28;20479;-79
2022/01/03 05:33:23;;;;;;;6.93;1.67;;;9.30;99.90;;;9.81;100.00;98131.53;5041278;28;20961;-80
2022/01/03 05:35:53;;;;;;;15.00;2.50;;;9.30;99.90;;;9.81;100.00;98126.31;5041960;28;20486;-80
2022/01/03 05:38:26;;;;;;;10.47;2.30;;;9.30;99.90;;;9.78;100.00;98116.22;5044941;28;21011;-80
2022/01/03 05:40:56;;;;;;;15.63;2.30;;;9.20;99.90;;;9.81;100.00;98118.47;5046197;28;20464;-80
2022/01/03 05:43:25;;;;;;;14.27;2.50;;;9.30;99.90;;;9.81;100.00;98122.88;5048640;28;20469;-80
2022/01/03 05:45:56;;;;;;;14.50;2.07;;;9.30;99.90;;;9.82;100.00;98117.47;5041358;28;20469;-80
2022/01/03 05:48:26;;;;;;;21.53;2.80;;;9.30;99.90;;;9.81;100.00;98117.66;5046031;28;20453;-79
2022/01/03 05:50:56;;;;;;;14.27;2.40;;;9.30;99.90;;;9.82;100.00;98121.91;5046345;28;20453;-79
2022/01/03 05:53:27;;;;;;;14.93;2.30;;;9.30;99.90;;;9.81;100.00;98122.88;5043460;28;20461;-80
2022/01/03 05:55:57;;;;;;;7.80;3.13;;;9.30;99.90;;;9.81;100.00;98117.66;5044972;28;20549;-83
2022/01/03 05:58:27;;;;;;;22.30;5.33;;;9.30;99.90;;;9.80;100.00;98116.03;5050649;28;20570;-80
2022/01/03 06:00:59;;;;;;;8.83;2.10;;;9.30;99.90;;;9.80;100.00;98119.47;5047101;28;20968;-79
2022/01/03 06:03:35;;;;;;;13.87;2.60;;;9.30;99.90;;;9.81;100.00;98113.25;5036499;28;20456;-80
2022/01/03 06:06:19;;;;;;;13.10;2.27;;;9.30;99.90;;;9.81;100.00;98118.47;5042215;28;20462;-80
2022/01/03 06:08:51;;;;;;;8.73;1.80;;;9.30;99.90;;;9.81;100.00;98120.28;5043337;28;20893;-80
2022/01/03 06:11:23;;;;;;;5.77;1.67;;;9.30;99.90;;;9.81;100.00;98115.88;5045740;28;20465;-80
2022/01/03 06:13:53;;;;;;;6.50;1.47;;;9.20;99.90;;;9.83;100.00;98115.66;5043668;28;20472;-79
2022/01/03 06:16:24;;;;;;;12.20;2.40;;;9.30;99.90;;;9.83;100.00;98120.91;5045261;28;20457;-80
2022/01/03 06:18:54;;;;;;;13.63;2.43;;;9.30;99.90;;;9.81;100.00;98118.47;5040167;28;20500;-79
2022/01/03 06:21:25;;;;;;;15.50;2.73;;;9.30;99.90;;;9.75;100.00;98115.78;5044428;28;20533;-79
2022/01/03 06:23:55;;;;;;;12.43;2.23;;;9.20;99.90;;;9.79;100.00;98114.44;5044986;28;20489;-79
2022/01/03 06:26:26;;;;;;;10.80;2.20;;;9.20;99.90;;;9.82;100.00;98114.06;5045550;28;20815;-79
2022/01/03 06:28:56;;;;;;;8.03;1.97;;;9.30;99.90;;;9.79;100.00;98111.81;5041495;28;20479;-80
2022/01/03 06:31:27;;;;;;;6.60;2.23;;;9.30;99.90;;;9.81;100.00;98104.59;5040744;28;20453;-79
2022/01/03 06:33:56;;;;;;;11.83;2.70;;;9.30;99.90;;;9.82;100.00;98106.25;5042237;28;20697;-80
2022/01/03 06:36:27;;;;;;;13.73;2.20;;;9.30;99.90;;;9.84;100.00;98104.25;5042737;28;20523;-79
2022/01/03 06:39:03;;;;;;;12.37;2.60;;;9.30;99.90;;;9.85;100.00;98114.53;5047438;28;20558;-80
2022/01/03 06:41:32;;;;;;;12.87;2.40;;;9.30;99.90;;;9.86;100.00;98105.69;5051684;28;20491;-80
2022/01/03 06:44:02;;;;;;;19.57;3.63;;;9.40;99.90;;;9.85;100.00;98109.31;5042316;28;20950;-82
2022/01/03 06:46:31;;;;;;;11.63;2.17;;;9.40;99.90;;;9.83;100.00;98107.84;5045450;28;20464;-80
2022/01/03 06:49:02;;;;;;;10.10;2.13;;;9.30;99.90;;;9.81;100.00;98096.78;5050683;28;20464;-80
2022/01/03 06:51:34;;;;;;;7.73;2.30;;;9.30;99.90;;;9.79;100.00;98101.38;5043606;28;20464;-80
2022/01/03 06:54:10;;;;;;;14.97;2.10;;;9.20;99.90;;;9.81;100.00;98099.38;5043484;28;20457;-80
2022/01/03 06:56:41;;;;;;;13.33;2.10;;;9.20;99.90;;;9.79;100.00;98101.38;5044816;28;20552;-80
2022/01/03 06:59:11;;;;;;;14.23;3.70;;;9.20;99.90;;;9.77;100.00;98092.91;5045287;28;20492;-80
2022/01/03 07:01:41;;;;;;;10.70;2.80;;;9.20;99.90;;;9.78;100.00;98092.72;5043253;28;20866;-80
2022/01/03 07:04:12;;;;;;;12.87;2.70;;;9.30;99.90;;;9.78;100.00;98087.50;5049870;28;20464;-80
2022/01/03 07:06:42;;;;;;;7.37;2.23;;;9.20;99.90;;;9.76;100.00;98083.44;5044509;28;20748;-80
2022/01/03 07:09:12;;;;;;;15.33;2.00;;;9.20;99.90;;;9.77;100.00;98085.06;5054759;28;20747;-80
2022/01/03 07:11:42;;;;;;;9.37;2.20;;;9.20;99.90;;;9.75;100.00;98087.88;5040253;28;20852;-80
2022/01/03 07:19:55;;;;;;;9.47;2.30;;;9.30;99.90;;;9.71;100.00;98096.25;5047193;28;20512;-80
2022/01/03 07:22:28;;;;;;;10.80;2.50;;;9.20;99.90;;;9.67;100.00;98101.00;5045999;28;20484;-80
2022/01/03 07:25:01;;;;;;;10.27;2.17;;;9.10;99.90;;;9.61;100.00;98105.13;5048555;28;20477;-80
2022/01/03 07:27:31;;;;;;;4.80;1.70;;;9.00;99.90;;;9.67;100.00;98094.97;5049852;28;21014;-80
2022/01/03 07:30:00;;;;;;;9.03;2.17;;;9.20;99.90;;;9.68;100.00;98094.00;5045404;28;20569;-80
2022/01/03 07:32:30;;;;;;;10.63;2.20;;;9.10;99.90;;;9.68;100.00;98097.41;5049134;28;20491;-80
2022/01/03 07:35:01;;;;;;;11.60;3.90;;;9.10;99.90;;;9.70;100.00;98107.66;5045284;28;21027;-80
2022/01/03 07:37:31;;;;;;;4.40;1.30;;;9.20;99.90;;;9.64;100.00;98103.16;5047616;28;20461;-80
2022/01/03 07:40:02;;;;;;;8.60;2.27;;;9.20;99.90;;;9.60;100.00;98095.69;5046726;28;20489;-80
2022/01/03 07:42:32;;;;;;;3.97;1.40;;;9.20;99.90;;;9.57;100.00;98106.50;5047604;28;20516;-80
2022/01/03 07:45:03;;;;;;;4.43;1.53;;;9.00;99.90;;;9.58;100.00;98102.88;5041182;28;20519;-80
2022/01/03 07:47:32;;;;;;;13.17;1.80;;;9.00;99.90;;;9.56;100.00;98094.44;5045153;28;21007;-80
2022/01/03 07:50:05;;;;;;;10.07;2.20;;;9.00;99.90;;;9.56;100.00;98097.03;5043098;28;20488;-80
2022/01/03 07:52:35;;;;;;;20.03;2.60;;;9.00;99.90;;;9.57;100.00;98101.28;5042800;28;20510;-80
2022/01/03 07:55:12;;;;;;;11.20;2.30;;;9.00;99.90;;;9.52;100.00;98097.56;5044043;28;20461;-80
2022/01/03 07:57:42;;;;;;;8.10;2.10;;;8.90;99.90;;;9.56;100.00;98104.06;5047623;28;20992;-80
2022/01/03 08:00:14;;;;;;;5.33;1.73;;;8.90;99.90;;;9.59;100.00;98108.91;5045760;28;20492;-80
2022/01/03 08:02:45;;;;;;;8.10;1.77;;;8.90;99.90;;;9.59;100.00;98096.69;5041362;28;20515;-79
2022/01/03 08:05:16;;;;;;;8.80;2.53;;;8.90;99.90;;;9.58;100.00;98102.88;5042848;28;20457;-80
2022/01/03 08:07:47;;;;;;;6.23;2.10;;;8.90;99.90;;;9.59;100.00;98106.31;5042725;28;20461;-80
2022/01/03 08:10:20;;;;;;;10.87;2.90;;;8.90;99.90;;;9.58;100.00;98094.22;5045994;28;20469;-80
2022/01/03 08:12:50;;;;;;;14.27;2.37;;;9.00;99.90;;;9.61;100.00;98094.69;5046314;28;20547;-80
2022/01/03 08:15:21;;;;;;;10.60;2.70;;;9.00;99.90;;;9.64;100.00;98103.16;5042779;28;20538;-80
2022/01/03 08:17:50;;;;;;;17.73;2.90;;;9.10;99.90;;;9.67;100.00;98111.44;5041347;28;20555;-79
2022/01/03 08:20:20;;;;;;;12.77;2.70;;;9.10;99.90;;;9.70;100.00;98102.44;5039321;28;20532;-79
2022/01/03 08:22:50;;;;;;;7.30;1.77;;;9.10;99.90;;;9.69;100.00;98099.00;5046696;28;20480;-80
2022/01/03 08:25:20;;;;;;;25.13;3.50;;;9.10;99.90;;;9.70;100.00;98099.81;5044630;28;20461;-80
2022/01/03 08:27:50;;;;;;;15.30;3.13;;;9.10;99.90;;;9.72;100.00;98103.88;5048861;28;20467;-79
2022/01/03 08:30:21;;;;;;;25.27;3.43;;;9.00;99.90;;;9.72;100.00;98103.88;5042907;28;20516;-79
2022/01/03 08:32:51;;;;;;;21.13;3.83;;;9.10;99.90;;;9.73;100.00;98110.72;5044232;28;20464;-83
2022/01/03 08:35:24;;;;;;;26.13;8.13;;;9.10;99.90;;;9.76;100.00;98109.53;5047212;28;20996;-80
2022/01/03 08:37:54;;;;;;;15.70;2.90;;;9.10;99.90;;;9.80;100.00;98100.38;5045300;28;20561;-79
2022/01/03 08:40:25;;;;;;;9.40;2.30;;;9.20;99.90;;;9.79;100.00;98090.94;5047422;28;20492;-79
2022/01/03 08:42:55;;;;;;;6.13;2.33;;;9.20;99.90;;;9.80;100.00;98090.72;5042599;28;20457;-79
2022/01/03 08:45:25;;;;;;;10.63;2.80;;;9.20;99.90;;;9.81;100.00;98097.59;5044538;28;20461;-79
2022/01/03 08:47:56;;;;;;;20.37;2.40;;;9.20;99.90;;;9.81;100.00;98102.00;5046751;28;20464;-80
2022/01/03 08:50:25;;;;;;;10.90;2.50;;;9.20;99.90;;;9.82;100.00;98101.00;5046269;28;20550;-79
2022/01/03 08:52:55;;;;;;;20.57;2.60;;;9.20;99.90;;;9.83;100.00;98100.00;5048307;28;20456;-79
2022/01/03 08:55:26;;;;;;;15.30;2.83;;;9.20;99.90;;;9.83;100.00;98089.56;5045636;28;20938;-79
2022/01/03 08:57:57;;;;;;;18.17;2.53;;;9.30;99.90;;;9.85;100.00;98098.03;5051089;28;20481;-80
2022/01/03 09:00:30;;;;;;;11.83;2.57;;;9.30;99.90;;;9.85;100.00;98082.38;5047879;28;20496;-79
2022/01/03 09:03:00;;;;;;;15.10;2.63;;;9.40;99.90;;;9.83;100.00;98089.56;5044567;28;20476;-79
2022/01/03 09:05:30;;;;;;;21.13;2.43;;;9.30;99.90;;;9.83;100.00;98086.94;5046086;28;20465;-79
2022/01/03 09:08:01;;;;;;;17.97;3.03;;;9.30;99.90;;;9.85;100.00;98087.59;5042514;28;20464;-80
2022/01/03 09:10:33;;;;;;;13.33;2.20;;;9.30;99.90;;;9.87;100.00;98077.75;5017450;28;20482;-79
2022/01/03 09:13:04;;;;;;;14.83;2.17;;;9.40;99.90;;;9.89;100.00;98088.84;5036386;28;20488;-80
2022/01/03 09:15:34;;;;;;;11.00;2.67;;;9.40;99.90;;;9.91;100.00;98092.91;5036555;28;20468;-79
2022/01/03 09:18:04;;;;;;;12.23;2.37;;;9.40;99.90;;;9.93;100.00;98087.47;5034765;28;20827;-80
2022/01/03 09:20:33;;;;;;;16.03;2.40;;;9.40;99.90;;;9.97;100.00;98083.50;5035306;28;20500;-79
2022/01/03 09:23:10;;;;;;;12.17;2.87;;;9.40;99.90;;;9.95;100.00;98077.66;5034805;28;20481;-79
2022/01/03 09:31:15;;;;;;;22.23;3.90;;;9.50;99.90;;;10.00;100.00;98080.53;5037052;28;20521;-79
2022/01/03 09:33:46;;;;;;;13.93;2.60;;;9.40;99.90;;;10.02;100.00;98094.25;5041967;28;20510;-79
2022/01/03 09:36:16;;;;;;;8.37;2.13;;;9.50;99.90;;;10.04;100.00;98085.22;5041240;28;20461;-78
2022/01/03 09:38:45;;;;;;;12.40;2.33;;;9.50;99.90;;;10.06;100.00;98090.28;5037351;28;20480;-78
2022/01/03 09:41:22;;;;;;;11.50;2.40;;;9.50;99.90;;;10.09;100.00;98082.88;5046337;28;21224;-79
2022/01/03 09:43:56;;;;;;;10.47;2.07;;;9.50;99.90;;;10.11;100.00;98087.91;5037876;28;20468;-79
2022/01/03 09:46:33;;;;;;;12.87;2.47;;;9.60;99.90;;;10.10;100.00;98091.50;5037948;28;20917;-79
2022/01/03 09:49:06;;;;;;;11.40;3.37;;;9.60;99.90;;;10.13;100.00;98082.50;5040297;28;20461;-79
2022/01/03 09:51:38;;;;;;;7.83;3.60;;;9.60;99.90;;;10.14;100.00;98082.34;5041858;28;20973;-80
2022/01/03 09:54:12;;;;;;;8.77;1.90;;;9.60;99.90;;;10.14;100.00;98092.78;5041743;28;20574;-77
2022/01/03 09:56:44;;;;;;;18.90;3.67;;;9.60;99.90;;;10.17;100.00;98087.19;5045439;28;20871;-78
2022/01/03 09:59:15;;;;;;;15.00;2.43;;;9.70;99.90;;;10.18;100.00;98078.38;5049101;28;20457;-78
2022/01/03 10:01:46;;;;;;;16.80;3.90;;;9.60;99.90;;;10.20;100.00;98078.22;5041466;28;20461;-78
2022/01/03 10:04:16;;;;;;;15.70;3.63;;;9.70;99.90;;;10.21;100.00;98075.41;5039442;28;20962;-78
2022/01/03 10:06:46;;;;;;;20.20;2.50;;;9.70;99.90;;;10.21;100.00;98075.41;5043797;28;20519;-78
2022/01/03 10:09:19;;;;;;;83.03;30.47;;;9.70;99.90;;;10.25;100.00;98074.03;5047085;28;20946;-79
2022/01/03 10:11:50;;;;;;;15.37;3.20;;;9.70;99.90;;;10.27;100.00;98077.28;5041526;28;20688;-79
2022/01/03 10:14:20;;;;;;;13.87;3.37;;;9.80;99.90;;;10.32;100.00;98074.09;5036265;28;20512;-79
2022/01/03 10:16:50;;;;;;;14.33;2.00;;;9.80;99.90;;;10.32;100.00;98066.25;5040562;28;20467;-78
2022/01/03 10:19:26;;;;;;;9.53;2.50;;;9.80;99.90;;;10.31;100.00;98065.44;5038045;28;20493;-79
2022/01/03 10:21:56;;;;;;;13.80;2.60;;;9.80;99.90;;;10.30;100.00;98069.09;5043872;28;20587;-79
2022/01/03 10:24:36;;;;;;;13.37;3.27;;;9.80;99.90;;;10.34;100.00;98054.66;5037484;28;20489;-78
2022/01/03 10:27:07;;;;;;;12.03;2.83;;;9.90;99.90;;;10.35;100.00;98065.88;5036734;28;20487;-79
2022/01/03 10:29:37;;;;;;;11.87;2.80;;;9.90;99.90;;;10.37;100.00;98051.66;5040775;28;20493;-79
2022/01/03 10:32:11;;;;;;;22.23;2.53;;;9.90;99.90;;;10.40;100.00;98055.72;5037399;28;20460;-79
2022/01/03 10:34:40;;;;;;;14.20;2.50;;;9.90;99.90;;;10.40;100.00;98053.09;5048212;28;20484;-79
2022/01/03 10:37:15;;;;;;;12.40;2.23;;;10.00;99.90;;;10.39;100.00;98054.91;5043669;28;20727;-78
2022/01/03 10:39:51;;;;;;;16.10;2.90;;;9.90;99.90;;;10.37;100.00;98050.84;5036098;28;20486;-80
2022/01/03 10:42:24;;;;;;;14.40;2.40;;;9.90;99.90;;;10.36;100.00;98050.03;5039171;28;20473;-79
2022/01/03 10:44:54;;;;;;;16.70;2.53;;;9.80;99.90;;;10.41;100.00;98052.88;5039212;28;20448;-79
2022/01/03 10:47:33;;;;;;;14.53;2.50;;;9.90;99.90;;;10.41;100.00;98047.66;5043362;28;20458;-78
2022/01/03 10:50:17;;;;;;;14.00;3.13;;;9.90;99.90;;;10.46;100.00;98024.41;5039417;28;20828;-78
2022/01/03 10:52:48;;;;;;;12.70;3.00;;;10.00;99.90;;;10.47;100.00;98026.03;5039375;28;20552;-79